createdAt,value
2019-03-11T00:00:57.991Z,19.65
2019-03-11T00:01:57.742Z,19.65
2019-03-11T00:02:57.887Z,19.64
2019-03-11T00:03:58.055Z,19.64
2019-03-11T00:04:57.798Z,19.63
2019-03-11T00:05:57.881Z,19.63
2019-03-11T00:06:57.991Z,19.62
2019-03-11T00:07:57.862Z,19.62
2019-03-11T00:08:57.899Z,19.61
2019-03-11T00:09:58.053Z,19.6
2019-03-11T00:10:57.854Z,19.6
2019-03-11T00:11:57.900Z,19.59
2019-03-11T00:12:58.004Z,19.59
2019-03-11T00:13:57.797Z,19.59
2019-03-11T00:14:57.904Z,19.58
2019-03-11T00:15:58.034Z,19.57
2019-03-11T00:16:57.801Z,19.58
2019-03-11T00:17:57.998Z,19.58
2019-03-11T00:18:57.994Z,19.58
2019-03-11T00:19:57.861Z,19.57
2019-03-11T00:20:57.867Z,19.56
2019-03-11T00:21:58.039Z,19.56
2019-03-11T00:22:57.915Z,19.55
2019-03-11T00:23:57.892Z,19.56
2019-03-11T00:24:58.017Z,19.55
2019-03-11T00:25:58.121Z,19.55
2019-03-11T00:26:57.937Z,19.55
2019-03-11T00:27:58.000Z,19.55
2019-03-11T00:28:57.842Z,19.53
2019-03-11T00:29:57.904Z,19.55
2019-03-11T00:30:58.010Z,19.53
2019-03-11T00:31:57.827Z,19.53
2019-03-11T00:32:57.900Z,19.53
2019-03-11T00:33:58.012Z,19.53
2019-03-11T00:34:57.848Z,19.52
2019-03-11T00:35:57.893Z,19.51
2019-03-11T00:36:57.782Z,19.51
2019-03-11T00:37:57.848Z,19.5
2019-03-11T00:38:57.916Z,19.5
2019-03-11T00:39:57.754Z,19.51
2019-03-11T00:40:57.877Z,19.51
2019-03-11T00:41:58.060Z,19.49
2019-03-11T00:42:57.755Z,19.49
2019-03-11T00:43:57.908Z,19.49
2019-03-11T00:44:57.983Z,19.48
2019-03-11T00:45:57.894Z,19.47
2019-03-11T00:46:57.882Z,19.47
2019-03-11T00:48:02.193Z,19.47
2019-03-11T00:48:57.911Z,19.47
2019-03-11T00:49:57.907Z,19.45
2019-03-11T00:50:57.959Z,19.46
2019-03-11T00:51:57.777Z,19.46
2019-03-11T00:52:57.930Z,19.45
2019-03-11T00:53:57.956Z,19.45
2019-03-11T00:54:57.771Z,19.45
2019-03-11T00:55:58.026Z,19.44
2019-03-11T00:56:58.020Z,19.44
2019-03-11T00:57:57.871Z,19.44
2019-03-11T00:58:57.907Z,19.44
2019-03-11T00:59:57.975Z,19.44
2019-03-11T01:00:57.856Z,19.42
2019-03-11T01:01:59.215Z,19.42
2019-03-11T01:02:58.153Z,19.42
2019-03-11T01:03:57.928Z,19.42
2019-03-11T01:04:57.941Z,19.4
2019-03-11T01:05:57.763Z,19.4
2019-03-11T01:06:57.834Z,19.4
2019-03-11T01:07:57.957Z,19.39
2019-03-11T01:08:57.801Z,19.4
2019-03-11T01:09:58.352Z,19.39
2019-03-11T01:10:57.976Z,19.39
2019-03-11T01:11:57.809Z,19.39
2019-03-11T01:12:57.896Z,19.39
2019-03-11T01:13:58.077Z,19.38
2019-03-11T01:14:57.890Z,19.38
2019-03-11T01:15:57.970Z,19.38
2019-03-11T01:16:58.016Z,19.39
2019-03-11T01:17:57.846Z,19.38
2019-03-11T01:18:57.893Z,19.36
2019-03-11T01:19:58.003Z,19.37
2019-03-11T01:20:57.914Z,19.36
2019-03-11T01:21:57.888Z,19.36
2019-03-11T01:22:57.700Z,19.35
2019-03-11T01:23:57.871Z,19.35
2019-03-11T01:24:57.893Z,19.35
2019-03-11T01:25:57.716Z,19.35
2019-03-11T01:26:57.916Z,19.35
2019-03-11T01:27:57.869Z,19.34
2019-03-11T01:28:57.727Z,19.34
2019-03-11T01:29:57.888Z,19.34
2019-03-11T01:30:57.879Z,19.34
2019-03-11T01:31:58.068Z,19.33
2019-03-11T01:32:57.869Z,19.34
2019-03-11T01:33:57.934Z,19.32
2019-03-11T01:34:57.769Z,19.33
2019-03-11T01:35:57.879Z,19.32
2019-03-11T01:36:58.043Z,19.32
2019-03-11T01:37:57.801Z,19.32
2019-03-11T01:38:57.991Z,19.32
2019-03-11T01:39:57.811Z,19.31
2019-03-11T01:40:57.803Z,19.32
2019-03-11T01:41:57.967Z,19.32
2019-03-11T01:42:57.775Z,19.31
2019-03-11T01:43:57.840Z,19.3
2019-03-11T01:44:57.922Z,19.3
2019-03-11T01:45:57.907Z,19.29
2019-03-11T01:46:58.188Z,19.29
2019-03-11T01:47:57.964Z,19.29
2019-03-11T01:48:57.797Z,19.28
2019-03-11T01:49:57.874Z,19.28
2019-03-11T01:50:57.951Z,19.28
2019-03-11T01:51:57.832Z,19.28
2019-03-11T01:52:57.958Z,19.28
2019-03-11T01:53:58.116Z,19.28
2019-03-11T01:54:57.800Z,19.27
2019-03-11T01:55:57.877Z,19.27
2019-03-11T01:56:57.991Z,19.27
2019-03-11T01:57:57.766Z,19.27
2019-03-11T01:58:58.165Z,19.28
2019-03-11T01:59:57.728Z,19.26
2019-03-11T02:00:57.851Z,19.26
2019-03-11T02:01:58.010Z,19.27
2019-03-11T02:02:57.748Z,19.27
2019-03-11T02:03:57.836Z,19.26
2019-03-11T02:04:57.926Z,19.26
2019-03-11T02:05:57.745Z,19.25
2019-03-11T02:06:57.879Z,19.25
2019-03-11T02:07:57.941Z,19.24
2019-03-11T02:08:57.834Z,19.24
2019-03-11T02:09:57.925Z,19.24
2019-03-11T02:10:57.769Z,19.24
2019-03-11T02:11:57.787Z,19.24
2019-03-11T02:12:57.910Z,19.22
2019-03-11T02:13:57.692Z,19.23
2019-03-11T02:14:57.908Z,19.23
2019-03-11T02:15:58.055Z,19.22
2019-03-11T02:16:57.785Z,19.22
2019-03-11T02:17:57.838Z,19.22
2019-03-11T02:18:57.950Z,19.22
2019-03-11T02:19:57.746Z,19.22
2019-03-11T02:20:57.821Z,19.21
2019-03-11T02:21:57.893Z,19.21
2019-03-11T02:22:57.906Z,19.21
2019-03-11T02:23:58.180Z,19.19
2019-03-11T02:24:57.949Z,19.2
2019-03-11T02:25:57.807Z,19.2
2019-03-11T02:26:57.951Z,19.2
2019-03-11T02:27:57.962Z,19.19
2019-03-11T02:28:57.923Z,19.19
2019-03-11T02:29:57.852Z,19.19
2019-03-11T02:30:57.995Z,19.18
2019-03-11T02:31:57.766Z,19.18
2019-03-11T02:32:57.915Z,19.19
2019-03-11T02:33:57.725Z,19.18
2019-03-11T02:34:57.792Z,19.17
2019-03-11T02:35:58.213Z,19.18
2019-03-11T02:36:57.822Z,19.17
2019-03-11T02:37:57.856Z,19.17
2019-03-11T02:38:57.922Z,19.16
2019-03-11T02:39:57.778Z,19.16
2019-03-11T02:40:57.843Z,19.16
2019-03-11T02:41:58.050Z,19.16
2019-03-11T02:42:57.749Z,19.16
2019-03-11T02:43:57.880Z,19.15
2019-03-11T02:44:57.948Z,19.16
2019-03-11T02:45:57.814Z,19.16
2019-03-11T02:46:57.884Z,19.16
2019-03-11T02:47:57.752Z,19.16
2019-03-11T02:48:57.828Z,19.16
2019-03-11T02:49:57.941Z,19.15
2019-03-11T02:50:57.796Z,19.15
2019-03-11T02:51:57.788Z,19.15
2019-03-11T02:52:57.939Z,19.14
2019-03-11T02:53:57.766Z,19.13
2019-03-11T02:54:57.903Z,19.13
2019-03-11T02:55:57.907Z,19.14
2019-03-11T02:56:57.795Z,19.12
2019-03-11T02:57:57.794Z,19.12
2019-03-11T02:58:57.875Z,19.12
2019-03-11T02:59:57.743Z,19.12
2019-03-11T03:00:57.821Z,19.12
2019-03-11T03:01:57.966Z,19.12
2019-03-11T03:02:57.775Z,19.11
2019-03-11T03:03:57.883Z,19.12
2019-03-11T03:04:57.699Z,19.12
2019-03-11T03:05:57.760Z,19.11
2019-03-11T03:06:57.879Z,19.11
2019-03-11T03:07:57.761Z,19.1
2019-03-11T03:08:57.859Z,19.11
2019-03-11T03:09:57.874Z,19.1
2019-03-11T03:10:57.817Z,19.11
2019-03-11T03:11:57.891Z,19.09
2019-03-11T03:12:58.016Z,19.09
2019-03-11T03:13:57.763Z,19.08
2019-03-11T03:14:57.941Z,19.09
2019-03-11T03:15:57.740Z,19.09
2019-03-11T03:16:57.789Z,19.09
2019-03-11T03:17:57.931Z,19.08
2019-03-11T03:18:57.754Z,19.08
2019-03-11T03:19:57.888Z,19.08
2019-03-11T03:20:58.239Z,19.06
2019-03-11T03:21:57.743Z,19.07
2019-03-11T03:22:57.939Z,19.07
2019-03-11T03:23:57.973Z,19.07
2019-03-11T03:24:57.783Z,19.07
2019-03-11T03:25:57.807Z,19.07
2019-03-11T03:26:58.002Z,19.06
2019-03-11T03:27:57.898Z,19.07
2019-03-11T03:28:57.798Z,19.06
2019-03-11T03:29:57.955Z,19.06
2019-03-11T03:30:57.879Z,19.06
2019-03-11T03:31:57.909Z,19.04
2019-03-11T03:32:57.641Z,19.05
2019-03-11T03:33:57.785Z,19.04
2019-03-11T03:34:57.833Z,19.04
2019-03-11T03:35:57.621Z,19.04
2019-03-11T03:36:57.804Z,19.05
2019-03-11T03:37:57.815Z,19.04
2019-03-11T03:38:57.683Z,19.03
2019-03-11T03:39:57.750Z,19.03
2019-03-11T03:40:57.841Z,19.02
2019-03-11T03:41:57.807Z,19.02
2019-03-11T03:42:57.850Z,19.02
2019-03-11T03:43:57.862Z,19.02
2019-03-11T03:44:57.709Z,19.02
2019-03-11T03:45:57.787Z,19.01
2019-03-11T03:46:58.925Z,19.02
2019-03-11T03:47:57.707Z,19.02
2019-03-11T03:48:57.822Z,19.01
2019-03-11T03:49:57.867Z,19.01
2019-03-11T03:50:57.749Z,19.01
2019-03-11T03:51:58.056Z,19
2019-03-11T03:52:57.873Z,19.01
2019-03-11T03:53:57.862Z,19.01
2019-03-11T03:54:57.826Z,19
2019-03-11T03:55:57.934Z,19
2019-03-11T03:56:57.792Z,19
2019-03-11T03:57:57.912Z,19
2019-03-11T03:58:57.682Z,18.99
2019-03-11T03:59:57.793Z,18.98
2019-03-11T04:00:57.881Z,18.99
2019-03-11T04:01:57.755Z,18.99
2019-03-11T04:02:57.761Z,18.99
2019-03-11T04:03:58.041Z,18.98
2019-03-11T04:04:58.146Z,18.98
2019-03-11T04:05:57.790Z,18.97
2019-03-11T04:06:58.049Z,18.97
2019-03-11T04:07:57.751Z,18.97
2019-03-11T04:08:57.813Z,18.96
2019-03-11T04:09:57.909Z,18.94
2019-03-11T04:10:57.759Z,18.97
2019-03-11T04:11:57.925Z,18.96
2019-03-11T04:12:57.890Z,18.96
2019-03-11T04:13:57.806Z,18.96
2019-03-11T04:14:57.944Z,18.95
2019-03-11T04:15:57.976Z,18.94
2019-03-11T04:16:57.818Z,18.96
2019-03-11T04:17:57.959Z,18.96
2019-03-11T04:18:57.801Z,18.96
2019-03-11T04:19:57.809Z,18.95
2019-03-11T04:20:58.022Z,18.95
2019-03-11T04:21:57.701Z,18.94
2019-03-11T04:22:57.824Z,18.94
2019-03-11T04:23:57.980Z,18.95
2019-03-11T04:24:57.752Z,18.94
2019-03-11T04:25:58.185Z,18.94
2019-03-11T04:26:57.859Z,18.93
2019-03-11T04:27:57.718Z,18.92
2019-03-11T04:28:57.823Z,18.93
2019-03-11T04:29:57.898Z,18.93
2019-03-11T04:30:57.824Z,18.92
2019-03-11T04:31:57.859Z,18.93
2019-03-11T04:32:57.727Z,18.92
2019-03-11T04:33:57.721Z,18.92
2019-03-11T04:34:57.830Z,18.93
2019-03-11T04:35:57.774Z,18.92
2019-03-11T04:36:57.727Z,18.92
2019-03-11T04:37:57.874Z,18.92
2019-03-11T04:38:57.719Z,18.92
2019-03-11T04:39:57.749Z,18.91
2019-03-11T04:40:57.858Z,18.91
2019-03-11T04:41:57.711Z,18.92
2019-03-11T04:42:57.755Z,18.92
2019-03-11T04:43:57.835Z,18.92
2019-03-11T04:44:57.769Z,18.93
2019-03-11T04:45:57.758Z,18.93
2019-03-11T04:46:57.971Z,18.94
2019-03-11T04:47:57.754Z,18.94
2019-03-11T04:48:57.896Z,18.94
2019-03-11T04:50:00.105Z,18.95
2019-03-11T04:50:57.699Z,18.96
2019-03-11T04:51:57.797Z,18.97
2019-03-11T04:52:57.902Z,18.98
2019-03-11T04:53:57.741Z,18.98
2019-03-11T04:54:57.851Z,18.99
2019-03-11T04:55:57.668Z,19
2019-03-11T04:56:57.836Z,19.01
2019-03-11T04:57:57.782Z,19.02
2019-03-11T04:58:57.650Z,19.03
2019-03-11T04:59:57.817Z,19.04
2019-03-11T05:00:57.922Z,19.06
2019-03-11T05:01:57.673Z,19.07
2019-03-11T05:02:57.762Z,19.08
2019-03-11T05:03:57.856Z,19.1
2019-03-11T05:04:57.811Z,19.13
2019-03-11T05:05:57.731Z,19.14
2019-03-11T05:06:57.891Z,19.16
2019-03-11T05:07:57.727Z,19.18
2019-03-11T05:08:58.613Z,19.19
2019-03-11T05:09:57.844Z,19.21
2019-03-11T05:10:57.736Z,19.23
2019-03-11T05:11:57.940Z,19.25
2019-03-11T05:12:57.686Z,19.26
2019-03-11T05:13:57.680Z,19.27
2019-03-11T05:14:57.875Z,19.3
2019-03-11T05:15:57.668Z,19.31
2019-03-11T05:16:57.733Z,19.33
2019-03-11T05:17:57.868Z,19.35
2019-03-11T05:18:57.936Z,19.35
2019-03-11T05:19:57.799Z,19.38
2019-03-11T05:20:57.826Z,19.4
2019-03-11T05:21:57.679Z,19.41
2019-03-11T05:22:57.844Z,19.43
2019-03-11T05:23:57.934Z,19.44
2019-03-11T05:24:57.729Z,19.46
2019-03-11T05:25:57.786Z,19.48
2019-03-11T05:26:57.883Z,19.5
2019-03-11T05:27:57.719Z,19.5
2019-03-11T05:28:57.872Z,19.52
2019-03-11T05:29:57.947Z,19.53
2019-03-11T05:30:57.892Z,19.54
2019-03-11T05:31:57.781Z,19.55
2019-03-11T05:32:57.885Z,19.57
2019-03-11T05:33:57.703Z,19.58
2019-03-11T05:34:57.837Z,19.59
2019-03-11T05:35:58.162Z,19.61
2019-03-11T05:36:57.704Z,19.61
2019-03-11T05:37:57.885Z,19.63
2019-03-11T05:38:57.646Z,19.64
2019-03-11T05:39:57.762Z,19.66
2019-03-11T05:40:57.826Z,19.66
2019-03-11T05:41:57.756Z,19.68
2019-03-11T05:42:57.732Z,19.69
2019-03-11T05:43:57.918Z,19.7
2019-03-11T05:44:57.683Z,19.72
2019-03-11T05:45:57.791Z,19.73
2019-03-11T05:46:57.857Z,19.74
2019-03-11T05:47:57.675Z,19.67
2019-03-11T05:48:57.794Z,19.55
2019-03-11T05:49:57.800Z,19.42
2019-03-11T05:50:57.982Z,19.33
2019-03-11T05:51:57.781Z,19.26
2019-03-11T05:52:57.928Z,19.19
2019-03-11T05:53:57.748Z,19.13
2019-03-11T05:54:57.791Z,19.04
2019-03-11T05:55:57.927Z,19.08
2019-03-11T05:56:59.021Z,19.14
2019-03-11T05:57:57.759Z,19.2
2019-03-11T05:58:57.857Z,19.25
2019-03-11T05:59:57.828Z,19.31
2019-03-11T06:00:57.790Z,19.35
2019-03-11T06:01:57.841Z,19.39
2019-03-11T06:02:57.702Z,19.43
2019-03-11T06:03:57.839Z,19.45
2019-03-11T06:04:57.674Z,19.48
2019-03-11T06:05:57.726Z,19.52
2019-03-11T06:06:57.856Z,19.54
2019-03-11T06:07:57.785Z,19.57
2019-03-11T06:08:57.746Z,19.57
2019-03-11T06:09:57.877Z,19.57
2019-03-11T06:10:57.674Z,19.54
2019-03-11T06:11:57.751Z,19.54
2019-03-11T06:12:57.968Z,19.5
2019-03-11T06:13:57.747Z,19.55
2019-03-11T06:14:57.787Z,19.58
2019-03-11T06:15:57.612Z,19.61
2019-03-11T06:16:57.768Z,19.64
2019-03-11T06:17:57.852Z,19.66
2019-03-11T06:18:57.743Z,19.68
2019-03-11T06:19:57.749Z,19.71
2019-03-11T06:20:57.902Z,19.73
2019-03-11T06:21:57.743Z,19.74
2019-03-11T06:22:57.744Z,19.77
2019-03-11T06:23:57.844Z,19.8
2019-03-11T06:24:57.888Z,19.81
2019-03-11T06:25:57.773Z,19.83
2019-03-11T06:26:57.817Z,19.85
2019-03-11T06:27:57.665Z,19.87
2019-03-11T06:28:57.825Z,19.88
2019-03-11T06:29:57.918Z,19.9
2019-03-11T06:30:57.675Z,19.92
2019-03-11T06:31:57.779Z,19.94
2019-03-11T06:32:57.841Z,19.95
2019-03-11T06:33:57.993Z,19.98
2019-03-11T06:34:57.905Z,19.96
2019-03-11T06:35:57.699Z,19.98
2019-03-11T06:36:57.760Z,19.99
2019-03-11T06:37:57.899Z,19.99
2019-03-11T06:39:05.567Z,20
2019-03-11T06:39:57.735Z,20.02
2019-03-11T06:40:57.866Z,20.01
2019-03-11T06:41:57.844Z,20.02
2019-03-11T06:42:58.153Z,20.03
2019-03-11T06:43:57.925Z,20.04
2019-03-11T06:44:57.815Z,20.05
2019-03-11T06:45:57.799Z,20.05
2019-03-11T06:46:57.650Z,20.05
2019-03-11T06:47:57.725Z,20.04
2019-03-11T06:48:57.839Z,20.06
2019-03-11T06:49:57.639Z,20.05
2019-03-11T06:50:57.781Z,20.04
2019-03-11T06:51:57.792Z,20.03
2019-03-11T06:52:57.750Z,20.04
2019-03-11T06:53:57.814Z,20.04
2019-03-11T06:54:57.953Z,20.04
2019-03-11T06:55:58.093Z,20.04
2019-03-11T06:56:57.839Z,20.05
2019-03-11T06:57:57.878Z,20.04
2019-03-11T06:58:57.643Z,20.04
2019-03-11T06:59:57.840Z,20.04
2019-03-11T07:00:57.749Z,20.05
2019-03-11T07:01:57.724Z,20.04
2019-03-11T07:02:57.823Z,20.04
2019-03-11T07:03:57.722Z,20.04
2019-03-11T07:04:57.708Z,20.04
2019-03-11T07:05:57.812Z,20.04
2019-03-11T07:06:57.650Z,20.04
2019-03-11T07:07:57.857Z,20.04
2019-03-11T07:08:57.872Z,20.03
2019-03-11T07:09:57.694Z,20.04
2019-03-11T07:10:57.774Z,20.04
2019-03-11T07:11:57.694Z,20.04
2019-03-11T07:12:57.698Z,20.05
2019-03-11T07:13:57.772Z,20.04
2019-03-11T07:14:57.598Z,20.04
2019-03-11T07:15:57.717Z,20.04
2019-03-11T07:16:57.781Z,20.04
2019-03-11T07:17:57.627Z,20.03
2019-03-11T07:18:57.720Z,20.03
2019-03-11T07:19:57.781Z,20.03
2019-03-11T07:20:57.655Z,20.02
2019-03-11T07:21:57.701Z,20.03
2019-03-11T07:22:57.830Z,20.03
2019-03-11T07:23:57.621Z,20.02
2019-03-11T07:24:57.842Z,20.02
2019-03-11T07:25:57.902Z,20.03
2019-03-11T07:26:57.633Z,20.02
2019-03-11T07:27:57.779Z,20.02
2019-03-11T07:28:57.864Z,20.01
2019-03-11T07:29:57.715Z,20.01
2019-03-11T07:30:57.861Z,20.01
2019-03-11T07:31:57.765Z,20.02
2019-03-11T07:32:57.740Z,20.01
2019-03-11T07:33:57.814Z,20
2019-03-11T07:35:07.846Z,20
2019-03-11T07:35:57.786Z,20.01
2019-03-11T07:36:57.828Z,20.01
2019-03-11T07:37:57.969Z,20
2019-03-11T07:38:58.131Z,20.01
2019-03-11T07:39:57.847Z,20.01
2019-03-11T07:40:57.651Z,20
2019-03-11T07:41:57.745Z,20
2019-03-11T07:42:57.612Z,19.99
2019-03-11T07:43:57.718Z,20
2019-03-11T07:44:57.773Z,20
2019-03-11T07:45:57.739Z,20
2019-03-11T07:46:57.742Z,20
2019-03-11T07:47:57.820Z,20.01
2019-03-11T07:48:57.649Z,20
2019-03-11T07:49:57.763Z,20
2019-03-11T07:50:57.816Z,20
2019-03-11T07:51:57.669Z,20
2019-03-11T07:52:57.787Z,20
2019-03-11T07:53:57.781Z,20.03
2019-03-11T07:54:57.640Z,20.03
2019-03-11T07:55:57.848Z,20.04
2019-03-11T07:56:57.658Z,20.05
2019-03-11T07:57:57.668Z,20.07
2019-03-11T07:58:57.790Z,20.07
2019-03-11T07:59:57.863Z,20.09
2019-03-11T08:00:57.671Z,20.1
2019-03-11T08:01:57.771Z,20.11
2019-03-11T08:02:57.666Z,20.1
2019-03-11T08:03:57.757Z,20.11
2019-03-11T08:04:57.859Z,20.13
2019-03-11T08:05:57.668Z,20.13
2019-03-11T08:06:57.740Z,20.14
2019-03-11T08:07:57.918Z,20.14
2019-03-11T08:08:57.734Z,20.14
2019-03-11T08:09:57.719Z,20.16
2019-03-11T08:10:57.550Z,20.16
2019-03-11T08:11:57.804Z,20.17
2019-03-11T08:12:57.878Z,20.18
2019-03-11T08:13:57.583Z,20.19
2019-03-11T08:14:57.766Z,20.2
2019-03-11T08:15:57.760Z,20.2
2019-03-11T08:16:57.733Z,20.23
2019-03-11T08:17:57.789Z,20.25
2019-03-11T08:18:57.840Z,20.27
2019-03-11T08:19:57.600Z,20.28
2019-03-11T08:20:57.774Z,20.27
2019-03-11T08:21:57.658Z,20.28
2019-03-11T08:22:57.639Z,20.26
2019-03-11T08:23:57.831Z,20.27
2019-03-11T08:24:57.645Z,20.27
2019-03-11T08:25:57.684Z,20.29
2019-03-11T08:26:57.855Z,20.28
2019-03-11T08:27:57.699Z,20.29
2019-03-11T08:28:57.741Z,20.3
2019-03-11T08:29:59.517Z,20.31
2019-03-11T08:30:57.624Z,20.31
2019-03-11T08:31:57.654Z,20.32
2019-03-11T08:32:57.863Z,20.33
2019-03-11T08:33:57.681Z,20.33
2019-03-11T08:34:57.680Z,20.33
2019-03-11T08:35:57.595Z,20.34
2019-03-11T08:36:57.690Z,20.34
2019-03-11T08:37:58.130Z,20.38
2019-03-11T08:38:57.861Z,20.37
2019-03-11T08:39:57.749Z,20.38
2019-03-11T08:40:57.762Z,20.4
2019-03-11T08:41:57.808Z,20.4
2019-03-11T08:42:57.680Z,20.4
2019-03-11T08:43:57.806Z,20.4
2019-03-11T08:44:57.582Z,20.42
2019-03-11T08:45:57.656Z,20.43
2019-03-11T08:46:57.697Z,20.42
2019-03-11T08:47:57.667Z,20.43
2019-03-11T08:48:57.698Z,20.43
2019-03-11T08:49:57.759Z,20.45
2019-03-11T08:50:57.688Z,20.46
2019-03-11T08:51:57.711Z,20.47
2019-03-11T08:52:57.771Z,20.47
2019-03-11T08:53:57.720Z,20.47
2019-03-11T08:54:57.792Z,20.47
2019-03-11T08:55:57.792Z,20.47
2019-03-11T08:56:57.612Z,20.48
2019-03-11T08:57:57.739Z,20.48
2019-03-11T08:58:57.620Z,20.49
2019-03-11T08:59:57.605Z,20.49
2019-03-11T09:00:57.798Z,20.49
2019-03-11T09:01:57.603Z,20.49
2019-03-11T09:02:57.776Z,20.49
2019-03-11T09:03:57.723Z,20.51
2019-03-11T09:04:57.946Z,20.51
2019-03-11T09:05:57.712Z,20.52
2019-03-11T09:06:57.824Z,20.51
2019-03-11T09:07:57.723Z,20.51
2019-03-11T09:08:57.817Z,20.53
2019-03-11T09:09:57.665Z,20.53
2019-03-11T09:10:57.721Z,20.53
2019-03-11T09:11:57.898Z,20.54
2019-03-11T09:12:57.639Z,20.54
2019-03-11T09:13:57.702Z,20.56
2019-03-11T09:14:57.773Z,20.55
2019-03-11T09:15:57.724Z,20.57
2019-03-11T09:16:57.775Z,20.57
2019-03-11T09:17:57.645Z,20.57
2019-03-11T09:18:57.755Z,20.58
2019-03-11T09:19:57.850Z,20.58
2019-03-11T09:20:57.676Z,20.58
2019-03-11T09:21:57.705Z,20.58
2019-03-11T09:22:57.821Z,20.59
2019-03-11T09:23:57.617Z,20.6
2019-03-11T09:24:57.740Z,20.61
2019-03-11T09:25:57.809Z,20.61
2019-03-11T09:26:58.400Z,20.61
2019-03-11T09:27:57.740Z,20.61
2019-03-11T09:28:57.656Z,20.61
2019-03-11T09:29:57.721Z,20.61
2019-03-11T09:30:57.756Z,20.62
2019-03-11T09:31:57.660Z,20.62
2019-03-11T09:32:57.754Z,20.62
2019-03-11T09:33:57.772Z,20.63
2019-03-11T09:34:57.564Z,20.63
2019-03-11T09:35:57.727Z,20.63
2019-03-11T09:36:57.676Z,20.65
2019-03-11T09:37:57.727Z,20.64
2019-03-11T09:38:57.757Z,20.64
2019-03-11T09:39:57.604Z,20.64
2019-03-11T09:40:57.681Z,20.64
2019-03-11T09:41:57.859Z,20.65
2019-03-11T09:42:57.566Z,20.63
2019-03-11T09:43:57.767Z,20.65
2019-03-11T09:44:57.724Z,20.65
2019-03-11T09:45:57.644Z,20.65
2019-03-11T09:46:57.798Z,20.64
2019-03-11T09:47:59.463Z,20.65
2019-03-11T09:48:57.621Z,20.66
2019-03-11T09:49:57.676Z,20.65
2019-03-11T09:50:59.103Z,20.66
2019-03-11T09:51:57.738Z,20.65
2019-03-11T09:52:57.820Z,20.66
2019-03-11T09:53:57.579Z,20.66
2019-03-11T09:54:57.668Z,20.67
2019-03-11T09:55:57.703Z,20.67
2019-03-11T09:56:57.553Z,20.68
2019-03-11T09:57:57.685Z,20.67
2019-03-11T09:58:57.916Z,20.68
2019-03-11T09:59:57.602Z,20.68
2019-03-11T10:00:57.757Z,20.69
2019-03-11T10:01:57.595Z,20.71
2019-03-11T10:02:57.656Z,20.71
2019-03-11T10:03:57.852Z,20.7
2019-03-11T10:04:57.534Z,20.71
2019-03-11T10:05:57.698Z,20.71
2019-03-11T10:06:57.908Z,20.72
2019-03-11T10:07:57.759Z,20.72
2019-03-11T10:08:57.673Z,20.72
2019-03-11T10:09:57.617Z,20.73
2019-03-11T10:10:57.622Z,20.75
2019-03-11T10:11:57.753Z,20.74
2019-03-11T10:12:57.548Z,20.74
2019-03-11T10:13:57.762Z,20.73
2019-03-11T10:14:57.731Z,20.71
2019-03-11T10:15:57.614Z,20.71
2019-03-11T10:16:57.770Z,20.7
2019-03-11T10:17:57.862Z,20.7
2019-03-11T10:18:57.607Z,20.68
2019-03-11T10:19:57.727Z,20.67
2019-03-11T10:20:57.561Z,20.68
2019-03-11T10:21:57.599Z,20.67
2019-03-11T10:22:57.717Z,20.67
2019-03-11T10:23:59.246Z,20.66
2019-03-11T10:24:57.614Z,20.66
2019-03-11T10:25:57.799Z,20.67
2019-03-11T10:26:57.623Z,20.67
2019-03-11T10:27:57.736Z,20.68
2019-03-11T10:28:57.772Z,20.68
2019-03-11T10:29:57.624Z,20.7
2019-03-11T10:30:58.036Z,20.71
2019-03-11T10:31:57.766Z,20.72
2019-03-11T10:32:57.644Z,20.72
2019-03-11T10:33:57.663Z,20.74
2019-03-11T10:34:57.492Z,20.78
2019-03-11T10:35:57.699Z,20.78
2019-03-11T10:36:57.658Z,20.78
2019-03-11T10:37:57.499Z,20.79
2019-03-11T10:38:57.665Z,20.8
2019-03-11T10:39:57.999Z,20.81
2019-03-11T10:40:57.663Z,20.83
2019-03-11T10:41:57.672Z,20.83
2019-03-11T10:42:57.787Z,20.85
2019-03-11T10:43:57.602Z,20.86
2019-03-11T10:44:57.737Z,20.87
2019-03-11T10:45:57.647Z,20.88
2019-03-11T10:46:57.640Z,20.88
2019-03-11T10:47:57.666Z,20.9
2019-03-11T10:48:57.570Z,20.9
2019-03-11T10:49:57.614Z,20.91
2019-03-11T10:50:57.776Z,20.92
2019-03-11T10:51:57.535Z,20.93
2019-03-11T10:52:57.722Z,20.93
2019-03-11T10:53:57.756Z,20.95
2019-03-11T10:54:57.573Z,20.96
2019-03-11T10:55:59.887Z,20.97
2019-03-11T10:56:57.791Z,20.97
2019-03-11T10:57:57.622Z,20.98
2019-03-11T10:58:57.676Z,20.99
2019-03-11T10:59:57.818Z,21
2019-03-11T11:00:57.585Z,21.02
2019-03-11T11:01:57.749Z,21.02
2019-03-11T11:02:57.516Z,21.03
2019-03-11T11:03:57.668Z,21.04
2019-03-11T11:04:57.675Z,21.05
2019-03-11T11:05:57.662Z,21.06
2019-03-11T11:06:57.662Z,21.05
2019-03-11T11:07:57.820Z,21.07
2019-03-11T11:08:57.926Z,21.07
2019-03-11T11:09:57.710Z,21.07
2019-03-11T11:10:57.688Z,21.08
2019-03-11T11:11:57.586Z,21.08
2019-03-11T11:12:57.730Z,21.1
2019-03-11T11:13:57.572Z,21.11
2019-03-11T11:14:57.604Z,21.11
2019-03-11T11:15:57.788Z,21.12
2019-03-11T11:16:57.617Z,21.13
2019-03-11T11:17:57.857Z,21.12
2019-03-11T11:18:57.503Z,21.13
2019-03-11T11:20:03.078Z,21.14
2019-03-11T11:20:57.798Z,21.14
2019-03-11T11:21:57.702Z,21.15
2019-03-11T11:22:57.659Z,21.16
2019-03-11T11:23:57.858Z,21.17
2019-03-11T11:24:57.543Z,21.18
2019-03-11T11:25:57.791Z,21.18
2019-03-11T11:26:58.022Z,21.18
2019-03-11T11:27:57.578Z,21.18
2019-03-11T11:28:57.774Z,21.2
2019-03-11T11:29:57.555Z,21.2
2019-03-11T11:30:57.644Z,21.2
2019-03-11T11:31:57.719Z,21.22
2019-03-11T11:32:57.923Z,21.24
2019-03-11T11:33:57.627Z,21.24
2019-03-11T11:34:57.810Z,21.24
2019-03-11T11:35:57.759Z,21.27
2019-03-11T11:36:57.636Z,21.28
2019-03-11T11:37:58.168Z,21.3
2019-03-11T11:38:57.629Z,21.32
2019-03-11T11:39:57.668Z,21.34
2019-03-11T11:40:57.475Z,21.35
2019-03-11T11:41:57.673Z,21.35
2019-03-11T11:42:57.920Z,21.34
2019-03-11T11:43:57.557Z,21.34
2019-03-11T11:44:57.665Z,21.33
2019-03-11T11:45:57.514Z,21.32
2019-03-11T11:46:57.576Z,21.32
2019-03-11T11:47:57.702Z,21.32
2019-03-11T11:48:57.557Z,21.31
2019-03-11T11:49:57.595Z,21.32
2019-03-11T11:50:57.736Z,21.31
2019-03-11T11:51:57.581Z,21.32
2019-03-11T11:52:57.620Z,21.32
2019-03-11T11:53:57.824Z,21.31
2019-03-11T11:54:57.539Z,21.31
2019-03-11T11:55:58.236Z,21.31
2019-03-11T11:56:57.534Z,21.31
2019-03-11T11:57:57.832Z,21.3
2019-03-11T11:58:57.655Z,21.32
2019-03-11T11:59:57.495Z,21.3
2019-03-11T12:00:57.634Z,21.29
2019-03-11T12:02:03.494Z,21.29
2019-03-11T12:02:57.707Z,21.29
2019-03-11T12:03:57.642Z,21.29
2019-03-11T12:04:57.684Z,21.29
2019-03-11T12:05:57.635Z,21.29
2019-03-11T12:06:57.658Z,21.29
2019-03-11T12:07:57.730Z,21.29
2019-03-11T12:08:57.571Z,21.29
2019-03-11T12:09:57.714Z,21.29
2019-03-11T12:10:57.728Z,21.28
2019-03-11T12:11:57.568Z,21.28
2019-03-11T12:12:57.725Z,21.28
2019-03-11T12:13:57.691Z,21.28
2019-03-11T12:14:57.695Z,21.29
2019-03-11T12:15:57.723Z,21.28
2019-03-11T12:16:57.597Z,21.28
2019-03-11T12:17:57.610Z,21.27
2019-03-11T12:18:57.597Z,21.27
2019-03-11T12:19:57.653Z,21.27
2019-03-11T12:20:57.631Z,21.27
2019-03-11T12:21:57.586Z,21.27
2019-03-11T12:22:57.590Z,21.28
2019-03-11T12:23:57.650Z,21.26
2019-03-11T12:24:57.513Z,21.26
2019-03-11T12:25:57.586Z,21.27
2019-03-11T12:26:57.652Z,21.26
2019-03-11T12:27:58.282Z,21.26
2019-03-11T12:28:57.611Z,21.27
2019-03-11T12:29:57.669Z,21.26
2019-03-11T12:30:57.532Z,21.25
2019-03-11T12:31:57.674Z,21.2
2019-03-11T12:32:57.684Z,21.22
2019-03-11T12:33:57.625Z,21.23
2019-03-11T12:34:57.724Z,21.24
2019-03-11T12:35:57.509Z,21.27
2019-03-11T12:36:57.579Z,21.26
2019-03-11T12:37:57.738Z,21.28
2019-03-11T12:38:57.600Z,21.29
2019-03-11T12:39:57.685Z,21.29
2019-03-11T12:40:57.752Z,21.3
2019-03-11T12:41:57.709Z,21.31
2019-03-11T12:42:57.688Z,21.31
2019-03-11T12:43:57.475Z,21.32
2019-03-11T12:44:57.671Z,21.32
2019-03-11T12:45:57.719Z,21.34
2019-03-11T12:46:57.581Z,21.34
2019-03-11T12:47:57.603Z,21.37
2019-03-11T12:48:57.533Z,21.36
2019-03-11T12:49:57.546Z,21.37
2019-03-11T12:50:57.767Z,21.39
2019-03-11T12:51:57.541Z,21.39
2019-03-11T12:52:57.587Z,21.4
2019-03-11T12:53:57.774Z,21.4
2019-03-11T12:54:57.578Z,21.42
2019-03-11T12:55:57.628Z,21.43
2019-03-11T12:56:57.861Z,21.43